Flight Track Log - Related Links

Times and Time Zones

All times are in EDT time to prevent confusion due to time zone crossing. See the RAX44 flight status page for this flight to view local times or setup timezone preferences in your user account.

Time Position Orientation Groundspeed Altitude Reporting Facility
EDT Latitude Longitude Course Direction KTS MPH feet Rate Location/Type
Fri 08:07:19 AM 42.6619 -83.4519 289° West 163 188 1,700  Level Cleveland Center
Fri 08:08:31 AM 42.6828 -83.5347 289° West 255 293 5,000 2,633 Climbing Cleveland Center
Fri 08:09:38 AM 42.7244 -83.4575 54° Northeast 268 308 7,800 2,400 Climbing Cleveland Center
Fri 08:10:21 AM 42.7283 -83.3842 86° East 291 335 9,400 2,328 Climbing Cleveland Center
Fri 08:10:45 AM 42.7275 -83.3361 91° East 306 352 10,400 2,200 Climbing Cleveland Center
Fri 08:11:21 AM 42.7286 -83.2797 88° East 316 364 11,600 1,875 Climbing Cleveland Center
Fri 08:12:21 AM 42.7086 -83.1544 102° East 336 387 13,400 2,000 Climbing Cleveland Center
Fri 08:13:21 AM 42.6158 -83.1083 160° South 279 321 15,600 2,250 Climbing Cleveland Center
Fri 08:14:21 AM 42.5158 -83.1072 180° South 308 354 17,900 2,100 Climbing Cleveland Center
Fri 08:15:21 AM 42.4181 -83.0947 175° South 325 374 19,800 1,950 Climbing Cleveland Center
Fri 08:16:21 AM 42.3161 -83.0881 177° South 352 405 21,800 1,950 Climbing Cleveland Center
Fri 08:17:21 AM 42.2122 -83.0783 176° South 369 425 23,700 2,050 Climbing Cleveland Center
Fri 08:18:21 AM 42.1019 -83.0711 177° South 386 444 25,900 1,800 Climbing Cleveland Center
Fri 08:20:21 AM 41.8792 -83.0486 176° South 401 461 29,100 1,633 Climbing Cleveland Center
Fri 08:21:21 AM 41.7647 -83.0386 176° South 412 474 30,800 1,450 Climbing Cleveland Center
Fri 08:22:21 AM 41.6539 -83.0567 187° South 412 474 32,000 1,000 Climbing Cleveland Center
Fri 08:23:21 AM 41.5350 -83.0547 179° South 418 481 32,800 500 Climbing Cleveland Center
Fri 08:24:21 AM 41.4089 -83.0139 166° South 443 510 33,000 150 Climbing Cleveland Center
Fri 08:25:21 AM 41.2808 -82.9539 161° South 475 547 33,100 1,000 Climbing Cleveland Center
Fri 08:26:21 AM 41.1586 -82.9164 167° South 480 552 35,000 1,000 Climbing Cleveland Center
Fri 08:27:21 AM 41.0317 -82.8981 174° South 463 533 35,100 850 Climbing Cleveland Center
Fri 08:28:21 AM 40.9069 -82.8800 174° South 463 533 36,700 900 Climbing Cleveland Center
Fri 08:29:21 AM 40.7886 -82.8567 172° South 457 526 36,900 494 Climbing Cleveland Center
Fri 08:31:11 AM 40.5539 -82.8203 173° South 462 532 38,100 737 Climbing Indianapolis Center
Fri 08:32:12 AM 40.4303 -82.8014 173° South 446 513 39,000 439 Climbing Indianapolis Center
Fri 08:33:14 AM 40.3058 -82.7828 173° South 446 513 39,000 -49 Level Indianapolis Center
Fri 08:34:15 AM 40.1917 -82.7653 173° South 454 522 38,900 -49 Descending Indianapolis Center
Fri 08:35:17 AM 40.0414 -82.7439 174° South 459 528 38,900  Level Indianapolis Center
Fri 08:36:18 AM 39.9128 -82.7267 174° South 457 526 38,900  Level Indianapolis Center
Fri 08:37:20 AM 39.7869 -82.7086 174° South 449 517 38,900  Level Indianapolis Center
Fri 08:38:21 AM 39.6600 -82.6911 174° South 452 520 38,900  Level Indianapolis Center
Fri 08:39:23 AM 39.5339 -82.6728 174° South 451 519 38,900  Level Indianapolis Center
Fri 08:40:25 AM 39.4078 -82.6558 174° South 450 518 38,900  Level Indianapolis Center
Fri 08:41:26 AM 39.2822 -82.6361 173° South 449 517 38,900 49 Level Indianapolis Center
Fri 08:42:28 AM 39.1550 -82.6178 174° South 454 522 39,000 48 Climbing Indianapolis Center
Fri 08:43:30 AM 39.0333 -82.5950 172° South 446 513 39,000  Level Indianapolis Center
Fri 08:44:31 AM 38.9069 -82.5733 172° South 456 525 39,000  Level Indianapolis Center
Fri 08:45:33 AM 38.7808 -82.5508 172° South 455 524 39,000  Level Indianapolis Center
Fri 08:46:34 AM 38.6336 -82.5222 171° South 456 525 39,000  Level Indianapolis Center
Fri 08:47:36 AM 38.5069 -82.4989 172° South 456 525 39,000  Level Indianapolis Center
Fri 08:48:38 AM 38.3789 -82.4742 171° South 461 531 39,000  Level Indianapolis Center
Fri 08:49:39 AM 38.2528 -82.4503 172° South 459 528 39,000  Level Indianapolis Center
Fri 08:50:41 AM 38.1272 -82.4267 172° South 457 526 39,000  Level Indianapolis Center
Fri 08:51:43 AM 38.0014 -82.4050 172° South 450 518 39,000  Level Indianapolis Center
Fri 08:52:45 AM 37.8547 -82.3767 171° South 453 521 39,000 -488 Level Indianapolis Center
Fri 08:53:46 AM 37.7253 -82.3492 170° South 467 537 38,000 -976 Descending Indianapolis Center
Fri 08:54:48 AM 37.5911 -82.3239 172° South 483 556 37,000 -823 Descending Indianapolis Center
Fri 08:55:50 AM 37.4556 -82.3000 172° South 488 562 36,300 -829 Descending Indianapolis Center
Fri 08:56:51 AM 37.3203 -82.2717 171° South 488 562 35,300 -1,317 Descending Indianapolis Center
Fri 08:57:53 AM 37.1864 -82.2436 171° South 483 556 33,600 -1,745 Descending Indianapolis Center
Fri 08:58:41 AM 37.0708 -82.2231 172° South 485 558 32,100 -1,667 Descending Atlanta Center
Fri 08:59:41 AM 36.9392 -82.2000 172° South 485 558 30,600 -1,350 Descending Atlanta Center
Fri 09:00:41 AM 36.8136 -82.1822 174° South 471 542 29,400 -1,200 Descending Atlanta Center
Fri 09:01:41 AM 36.6883 -82.1669 174° South 459 528 28,200 -1,250 Descending Atlanta Center
Fri 09:02:41 AM 36.5589 -82.1547 176° South 465 535 26,900 -1,050 Descending Atlanta Center
Fri 09:03:41 AM 36.4294 -82.1344 173° South 465 535 26,100 -900 Descending Atlanta Center
Fri 09:04:41 AM 36.2997 -82.1144 173° South 465 535 25,100 -1,000 Descending Atlanta Center
Fri 09:05:41 AM 36.1744 -82.0994 174° South 459 528 24,100 -950 Descending Atlanta Center
Fri 09:06:41 AM 36.0469 -82.0844 175° South 459 528 23,200 -1,750 Descending Atlanta Center
Fri 09:07:41 AM 35.9278 -82.0694 174° South 452 520 20,600 -2,650 Descending Atlanta Center
Fri 09:08:41 AM 35.8233 -82.0564 174° South 433 498 17,900 -2,600 Descending Atlanta Center
Fri 09:09:41 AM 35.7186 -82.0436 174° South 403 464 15,400 -2,350 Descending Atlanta Center
Fri 09:10:41 AM 35.6164 -82.0308 174° South 381 438 13,200 -2,100 Descending Atlanta Center
Fri 09:11:41 AM 35.5200 -82.0178 174° South 358 412 11,200 -1,600 Descending Atlanta Center
Fri 09:12:41 AM 35.4322 -82.0022 172° South 342 394 10,000 -1,250 Descending Atlanta Center
Fri 09:13:41 AM 35.3569 -81.9889 172° South 292 336 8,700 -1,400 Descending Atlanta Center
Fri 09:14:41 AM 35.2817 -81.9753 172° South 278 320 7,200 -1,450 Descending Atlanta Center
Fri 09:15:41 AM 35.2083 -81.9644 173° South 269 310 5,800 -1,450 Descending Atlanta Center
Fri 09:16:41 AM 35.1394 -81.9586 176° South 256 295 4,300 -1,200 Descending Atlanta Center
Fri 09:17:41 AM 35.0619 -81.9478 173° South 256 295 3,400 -650 Descending Atlanta Center
Fri 09:18:41 AM 35.0119 -81.9542 186° South 245 282 3,000 2,300 Descending Atlanta Center
Fri 09:19:41 AM 34.9347 -81.9436 174° South 245 282 8,000 2,500 Climbing Atlanta Center
Fri 09:20:41 AM 34.8678 -81.9375 176° South 245 282 8,000  Level Atlanta Center
Fri 09:22:00 AM 34.9000 -81.9500 338° Northwest  Level FlightAware Approximate
Fri 09:29:00 AM 34.9157 -81.9565 338° Northwest  Level Estimated
Fri 09:30:00 AM 34.9157 -81.9565 338° Northwest  Level Estimated

Login

Don't have an account? Register now (free) for customized features, flight alerts, and more!